createdAt,value
2019-03-29T00:02:13.384Z,11.70
2019-03-29T00:04:42.144Z,11.60
2019-03-29T00:07:11.078Z,11.60
2019-03-29T00:09:39.770Z,11.40
2019-03-29T00:12:08.617Z,11.40
2019-03-29T00:14:37.265Z,11.20
2019-03-29T00:17:05.911Z,11.20
2019-03-29T00:19:34.454Z,11.30
2019-03-29T00:22:03.105Z,11.30
2019-03-29T00:24:31.781Z,11.40
2019-03-29T00:27:00.618Z,11.40
2019-03-29T00:29:29.935Z,11.40
2019-03-29T00:31:58.658Z,11.30
2019-03-29T00:34:27.494Z,11.30
2019-03-29T00:36:56.229Z,11.20
2019-03-29T00:39:25.223Z,11.40
2019-03-29T00:41:54.050Z,11.50
2019-03-29T00:44:22.772Z,11.60
2019-03-29T00:46:51.563Z,11.70
2019-03-29T00:49:20.452Z,11.80
2019-03-29T00:51:49.255Z,11.80
2019-03-29T00:54:17.955Z,11.80
2019-03-29T00:56:46.688Z,11.80
2019-03-29T00:59:16.542Z,11.50
2019-03-29T01:01:45.253Z,11.50
2019-03-29T01:04:13.768Z,11.40
2019-03-29T01:06:42.480Z,11.60
2019-03-29T01:09:11.371Z,11.70
2019-03-29T01:11:40.944Z,11.70
2019-03-29T01:14:09.574Z,11.80
2019-03-29T01:16:38.152Z,11.90
2019-03-29T01:19:06.890Z,11.90
2019-03-29T01:21:35.364Z,11.90
2019-03-29T01:24:04.082Z,11.70
2019-03-29T01:26:32.871Z,11.90
2019-03-29T01:29:01.563Z,12.00
2019-03-29T01:31:30.297Z,12.10
2019-03-29T01:33:59.111Z,12.10
2019-03-29T01:36:28.274Z,12.10
2019-03-29T01:38:56.919Z,12.00
2019-03-29T01:41:26.950Z,12.10
2019-03-29T01:43:55.732Z,12.00
2019-03-29T01:46:24.373Z,12.00
2019-03-29T01:48:53.163Z,12.10
2019-03-29T01:51:21.799Z,12.00
2019-03-29T01:53:50.576Z,11.90
2019-03-29T01:56:19.305Z,12.00
2019-03-29T01:58:48.056Z,12.00
2019-03-29T02:01:16.555Z,11.90
2019-03-29T02:03:45.295Z,11.70
2019-03-29T02:06:14.011Z,11.70
2019-03-29T02:08:42.695Z,11.60
2019-03-29T02:11:11.535Z,11.70
2019-03-29T02:13:40.267Z,11.70
2019-03-29T02:16:09.047Z,11.70
2019-03-29T02:18:38.003Z,11.90
2019-03-29T02:21:06.736Z,11.90
2019-03-29T02:23:35.532Z,11.80
2019-03-29T02:26:04.259Z,11.90
2019-03-29T02:28:32.885Z,11.90
2019-03-29T02:31:01.582Z,12.00
2019-03-29T02:33:30.351Z,11.90
2019-03-29T02:35:59.265Z,11.70
2019-03-29T02:38:27.923Z,11.70
2019-03-29T02:40:56.789Z,11.80
2019-03-29T02:43:25.550Z,11.70
2019-03-29T02:45:54.304Z,11.70
2019-03-29T02:48:23.089Z,11.60
2019-03-29T02:50:51.775Z,11.60
2019-03-29T02:53:20.499Z,11.60
2019-03-29T02:55:49.190Z,11.60
2019-03-29T02:58:17.962Z,11.60
2019-03-29T03:00:48.085Z,11.50
2019-03-29T03:03:17.042Z,11.50
2019-03-29T03:05:45.856Z,11.40
2019-03-29T03:08:14.549Z,11.30
2019-03-29T03:10:43.492Z,11.20
2019-03-29T03:13:12.391Z,11.20
2019-03-29T03:15:41.093Z,11.10
2019-03-29T03:18:09.837Z,11.10
2019-03-29T03:20:38.550Z,11.10
2019-03-29T03:23:07.544Z,10.90
2019-03-29T03:25:36.278Z,10.90
2019-03-29T03:28:04.954Z,10.80
2019-03-29T03:30:33.504Z,10.80
2019-03-29T03:33:02.457Z,10.80
2019-03-29T03:35:30.976Z,10.80
2019-03-29T03:37:59.823Z,10.80
2019-03-29T03:40:28.505Z,10.90
2019-03-29T03:42:57.327Z,10.80
2019-03-29T03:45:25.956Z,10.90
2019-03-29T03:47:54.745Z,10.90
2019-03-29T03:50:38.175Z,10.90
2019-03-29T03:53:06.938Z,11.10
2019-03-29T03:55:36.859Z,11.00
2019-03-29T03:58:05.760Z,10.90
2019-03-29T04:00:54.865Z,11.00
2019-03-29T04:03:23.994Z,11.00
2019-03-29T04:05:52.838Z,11.00
2019-03-29T04:08:21.680Z,11.10
2019-03-29T04:10:50.266Z,11.00
2019-03-29T04:13:19.215Z,11.00
2019-03-29T04:15:48.020Z,11.00
2019-03-29T04:18:16.940Z,11.00
2019-03-29T04:20:45.731Z,10.90
2019-03-29T04:23:14.350Z,11.00
2019-03-29T04:25:42.876Z,11.00
2019-03-29T04:28:11.716Z,11.00
2019-03-29T04:30:40.454Z,11.00
2019-03-29T04:33:11.247Z,11.00
2019-03-29T04:35:39.926Z,11.00
2019-03-29T04:38:08.654Z,11.10
2019-03-29T04:40:37.440Z,11.10
2019-03-29T04:43:06.188Z,11.10
2019-03-29T04:45:34.917Z,11.20
2019-03-29T04:48:03.721Z,11.20
2019-03-29T04:50:32.576Z,11.20
2019-03-29T04:53:01.393Z,11.20
2019-03-29T04:55:29.880Z,11.30
2019-03-29T04:57:58.602Z,11.30
2019-03-29T05:00:27.352Z,11.30
2019-03-29T05:02:56.124Z,11.40
2019-03-29T05:05:24.685Z,11.50
2019-03-29T05:07:54.324Z,11.60
2019-03-29T05:10:23.092Z,11.70
2019-03-29T05:12:51.963Z,11.70
2019-03-29T05:15:20.912Z,11.80
2019-03-29T05:17:49.670Z,11.80
2019-03-29T05:20:18.511Z,11.70
2019-03-29T05:22:47.041Z,11.70
2019-03-29T05:25:15.753Z,11.80
2019-03-29T05:27:44.823Z,12.00
2019-03-29T05:30:13.622Z,12.10
2019-03-29T05:32:42.376Z,12.10
2019-03-29T05:35:11.243Z,12.20
2019-03-29T05:37:40.252Z,12.00
2019-03-29T05:40:08.964Z,12.20
2019-03-29T05:42:37.705Z,12.40
2019-03-29T05:45:06.954Z,12.40
2019-03-29T05:47:35.755Z,12.50
2019-03-29T05:50:04.680Z,12.60
2019-03-29T05:52:33.044Z,12.60
2019-03-29T05:55:01.383Z,12.70
2019-03-29T05:57:30.900Z,12.70
2019-03-29T05:59:59.587Z,12.90
2019-03-29T06:02:28.400Z,13.00
2019-03-29T06:04:58.530Z,13.10
2019-03-29T06:07:38.430Z,13.20
2019-03-29T06:10:09.309Z,13.30
2019-03-29T06:12:37.878Z,13.50
2019-03-29T06:15:06.471Z,13.60
2019-03-29T06:17:47.935Z,13.70
2019-03-29T06:20:06.696Z,13.70
2019-03-29T06:22:35.466Z,13.80
2019-03-29T06:25:04.417Z,13.90
2019-03-29T06:27:33.352Z,14.00
2019-03-29T06:30:01.834Z,14.10
2019-03-29T06:32:30.580Z,14.50
2019-03-29T06:34:59.304Z,15.30
2019-03-29T06:37:28.291Z,16.30
2019-03-29T06:39:58.135Z,17.40
2019-03-29T06:42:26.522Z,18.10
2019-03-29T06:44:55.278Z,18.90
2019-03-29T06:47:24.181Z,19.60
2019-03-29T06:49:52.838Z,19.90
2019-03-29T06:52:21.612Z,20.50
2019-03-29T06:54:50.496Z,21.00
2019-03-29T06:57:19.302Z,21.40
2019-03-29T06:59:48.016Z,21.70
2019-03-29T07:02:16.843Z,22.20
2019-03-29T07:04:45.579Z,22.30
2019-03-29T07:07:14.336Z,22.70
2019-03-29T07:09:43.321Z,23.00
2019-03-29T07:12:13.679Z,22.50
2019-03-29T07:14:42.462Z,22.90
2019-03-29T07:17:11.157Z,23.40
2019-03-29T07:19:39.836Z,23.10
2019-03-29T07:22:08.392Z,23.50
2019-03-29T07:24:37.169Z,23.40
2019-03-29T07:27:05.893Z,23.00
2019-03-29T07:29:34.575Z,23.10
2019-03-29T07:32:03.402Z,22.70
2019-03-29T07:34:32.036Z,23.20
2019-03-29T07:37:00.940Z,24.20
2019-03-29T07:39:29.391Z,23.80
2019-03-29T07:41:57.988Z,24.10
2019-03-29T07:44:26.767Z,23.50
2019-03-29T07:46:55.394Z,23.10
2019-03-29T07:49:24.040Z,23.10
2019-03-29T07:51:52.717Z,23.50
2019-03-29T07:54:21.695Z,22.90
2019-03-29T07:56:50.391Z,22.60
2019-03-29T07:59:19.182Z,22.20
2019-03-29T08:01:48.040Z,22.30
2019-03-29T08:04:16.775Z,22.00
2019-03-29T08:06:46.557Z,21.30
2019-03-29T08:09:22.273Z,21.30
2019-03-29T08:11:46.847Z,22.00
2019-03-29T08:14:15.596Z,21.50
2019-03-29T08:16:44.510Z,21.10
2019-03-29T08:19:13.379Z,21.30
2019-03-29T08:21:42.167Z,20.70
2019-03-29T08:24:10.807Z,21.00
2019-03-29T08:26:39.496Z,20.90
2019-03-29T08:29:08.247Z,21.10
2019-03-29T08:31:37.279Z,21.90
2019-03-29T08:34:06.007Z,21.40
2019-03-29T08:36:34.816Z,21.00
2019-03-29T08:39:05.007Z,21.00
2019-03-29T08:41:33.652Z,20.70
2019-03-29T08:44:02.296Z,20.20
2019-03-29T08:46:31.106Z,20.10
2019-03-29T08:48:59.778Z,20.80
2019-03-29T08:51:28.443Z,20.70
2019-03-29T08:53:57.207Z,20.60
2019-03-29T08:56:25.970Z,20.60
2019-03-29T08:58:54.664Z,20.80
2019-03-29T09:01:23.349Z,20.70
2019-03-29T09:04:04.616Z,20.70
2019-03-29T09:06:22.407Z,20.20
2019-03-29T09:08:51.583Z,18.90
2019-03-29T09:11:20.289Z,18.30
2019-03-29T09:13:49.000Z,18.10
2019-03-29T09:16:19.571Z,18.30
2019-03-29T09:18:48.195Z,19.00
2019-03-29T09:21:16.955Z,18.70
2019-03-29T09:23:45.732Z,18.50
2019-03-29T09:26:14.459Z,18.50
2019-03-29T09:28:42.980Z,17.90
2019-03-29T09:31:11.791Z,18.20
2019-03-29T09:33:40.533Z,18.20
2019-03-29T09:36:09.271Z,18.30
2019-03-29T09:38:37.954Z,19.00
2019-03-29T09:41:06.893Z,18.90
2019-03-29T09:43:35.553Z,19.80
2019-03-29T09:46:04.367Z,18.60
2019-03-29T09:48:34.542Z,18.60
2019-03-29T09:51:03.147Z,19.70
2019-03-29T09:53:31.970Z,20.50
2019-03-29T09:56:00.727Z,20.50
2019-03-29T09:58:29.399Z,20.80
2019-03-29T10:00:58.136Z,20.60
2019-03-29T10:03:26.705Z,20.50
2019-03-29T10:05:55.453Z,20.50
2019-03-29T10:08:24.306Z,20.60
2019-03-29T10:10:52.740Z,20.30
2019-03-29T10:13:21.191Z,20.50
2019-03-29T10:15:51.448Z,20.50
2019-03-29T10:18:20.238Z,20.60
2019-03-29T10:20:49.088Z,21.00
2019-03-29T10:23:17.942Z,20.60
2019-03-29T10:25:46.666Z,20.70
2019-03-29T10:28:15.452Z,21.10
2019-03-29T10:30:46.625Z,21.10
2019-03-29T10:33:15.188Z,21.70
2019-03-29T10:35:52.024Z,21.30
2019-03-29T10:38:14.151Z,20.60
2019-03-29T10:40:42.858Z,21.70
2019-03-29T10:43:11.691Z,20.80
2019-03-29T10:45:40.907Z,20.20
2019-03-29T10:48:09.607Z,20.30
2019-03-29T10:50:38.164Z,21.10
2019-03-29T10:53:07.012Z,22.30
2019-03-29T10:55:35.801Z,22.50
2019-03-29T10:58:04.611Z,22.70
2019-03-29T11:00:41.938Z,22.70
2019-03-29T11:03:10.716Z,23.20
2019-03-29T11:05:39.687Z,23.30
2019-03-29T11:08:11.774Z,24.20
2019-03-29T11:10:39.608Z,23.40
2019-03-29T11:13:13.350Z,22.60
2019-03-29T11:15:38.868Z,23.60
2019-03-29T11:18:07.924Z,23.60
2019-03-29T11:20:36.629Z,24.10
2019-03-29T11:23:05.550Z,24.10
2019-03-29T11:25:34.188Z,23.70
2019-03-29T11:28:02.947Z,23.40
2019-03-29T11:30:42.164Z,23.90
2019-03-29T11:33:02.173Z,24.40
2019-03-29T11:35:30.984Z,23.80
2019-03-29T11:37:59.716Z,24.30
2019-03-29T11:40:28.334Z,24.80
2019-03-29T11:42:57.293Z,24.80
2019-03-29T11:45:26.313Z,24.60
2019-03-29T11:48:07.348Z,24.20
2019-03-29T11:50:28.958Z,23.90
2019-03-29T11:52:56.316Z,24.40
2019-03-29T11:55:25.069Z,24.30
2019-03-29T11:57:55.818Z,24.40
2019-03-29T12:00:37.073Z,24.70
2019-03-29T12:03:09.142Z,25.20
2019-03-29T12:05:37.197Z,24.60
2019-03-29T12:08:06.390Z,24.90
2019-03-29T12:10:35.461Z,23.70
2019-03-29T12:13:05.994Z,24.30
2019-03-29T12:15:34.779Z,24.70
2019-03-29T12:18:03.513Z,24.80
2019-03-29T12:20:32.082Z,24.80
2019-03-29T12:23:00.714Z,24.10
2019-03-29T12:25:29.460Z,23.90
2019-03-29T12:27:58.153Z,24.40
2019-03-29T12:30:31.707Z,24.60
2019-03-29T12:32:57.958Z,25.10
2019-03-29T12:35:26.537Z,24.20
2019-03-29T12:37:55.356Z,24.30
2019-03-29T12:40:24.062Z,23.50
2019-03-29T12:42:52.690Z,22.90
2019-03-29T12:45:21.566Z,23.20
2019-03-29T12:47:50.406Z,23.20
2019-03-29T12:50:19.159Z,23.50
2019-03-29T12:52:48.061Z,23.60
2019-03-29T12:55:16.738Z,22.70
2019-03-29T12:57:45.436Z,22.00
2019-03-29T13:00:14.876Z,21.80
2019-03-29T13:02:43.614Z,21.20
2019-03-29T13:05:12.323Z,21.10
2019-03-29T13:07:41.245Z,21.50
2019-03-29T13:10:10.027Z,21.00
2019-03-29T13:12:38.805Z,20.50
2019-03-29T13:15:07.819Z,20.20
2019-03-29T13:17:36.752Z,20.10
2019-03-29T13:20:05.460Z,20.30
2019-03-29T13:22:34.876Z,20.30
2019-03-29T13:25:07.133Z,20.80
2019-03-29T13:27:34.253Z,21.00
2019-03-29T13:30:03.416Z,21.00
2019-03-29T13:32:33.575Z,20.80
2019-03-29T13:35:02.465Z,20.80
2019-03-29T13:37:31.119Z,21.00
2019-03-29T13:39:59.830Z,20.80
2019-03-29T13:42:28.407Z,20.20
2019-03-29T13:44:57.274Z,20.00
2019-03-29T13:47:26.109Z,20.20
2019-03-29T13:49:54.893Z,20.10
2019-03-29T13:52:23.655Z,20.50
2019-03-29T13:54:52.360Z,20.60
2019-03-29T13:57:21.137Z,20.50
2019-03-29T13:59:49.882Z,20.00
2019-03-29T14:02:18.535Z,19.50
2019-03-29T14:04:47.184Z,19.30
2019-03-29T14:07:15.943Z,18.90
2019-03-29T14:09:44.679Z,19.20
2019-03-29T14:12:13.442Z,19.50
2019-03-29T14:14:42.525Z,19.00
2019-03-29T14:17:11.312Z,18.80
2019-03-29T14:19:40.165Z,18.70
2019-03-29T14:22:08.776Z,19.00
2019-03-29T14:24:37.398Z,19.10
2019-03-29T14:27:06.165Z,19.00
2019-03-29T14:29:34.835Z,18.90
2019-03-29T14:32:03.460Z,18.70
2019-03-29T14:34:32.165Z,18.60
2019-03-29T14:37:00.492Z,18.80
2019-03-29T14:39:29.262Z,18.50
2019-03-29T14:41:58.248Z,18.40
2019-03-29T14:44:28.194Z,18.40
2019-03-29T14:46:57.070Z,18.70
2019-03-29T14:49:25.954Z,18.90
2019-03-29T14:51:54.820Z,18.90
2019-03-29T14:54:23.615Z,18.20
2019-03-29T14:56:52.254Z,17.80
2019-03-29T14:59:21.027Z,17.60
2019-03-29T15:01:50.073Z,17.50
2019-03-29T15:04:18.885Z,17.30
2019-03-29T15:06:47.639Z,17.50
2019-03-29T15:09:16.547Z,17.70
2019-03-29T15:11:45.393Z,18.10
2019-03-29T15:14:14.199Z,17.90
2019-03-29T15:16:42.858Z,17.80
2019-03-29T15:19:11.878Z,17.80
2019-03-29T15:21:40.664Z,18.10
2019-03-29T15:24:09.427Z,17.70
2019-03-29T15:26:38.243Z,17.90
2019-03-29T15:29:07.083Z,17.80
2019-03-29T15:31:54.527Z,18.20
2019-03-29T15:34:23.258Z,17.90
2019-03-29T15:36:52.116Z,18.00
2019-03-29T15:39:21.006Z,17.90
2019-03-29T15:41:49.928Z,17.90
2019-03-29T15:44:18.820Z,18.00
2019-03-29T15:46:47.631Z,17.80
2019-03-29T15:49:16.196Z,17.70
2019-03-29T15:51:44.941Z,17.70
2019-03-29T15:54:13.898Z,17.60
2019-03-29T15:56:42.842Z,17.50
2019-03-29T15:59:11.531Z,17.40
2019-03-29T16:01:40.484Z,17.10
2019-03-29T16:04:09.218Z,17.00
2019-03-29T16:06:38.003Z,16.70
2019-03-29T16:09:06.690Z,16.60
2019-03-29T16:11:35.449Z,16.90
2019-03-29T16:14:04.136Z,17.00
2019-03-29T16:16:32.941Z,16.90
2019-03-29T16:19:02.547Z,16.80
2019-03-29T16:21:31.079Z,16.90
2019-03-29T16:23:59.926Z,17.10
2019-03-29T16:26:28.529Z,16.90
2019-03-29T16:28:57.211Z,17.00
2019-03-29T16:31:26.037Z,16.80
2019-03-29T16:33:54.959Z,16.90
2019-03-29T16:36:23.512Z,16.80
2019-03-29T16:38:52.389Z,16.60
2019-03-29T16:41:21.322Z,16.70
2019-03-29T16:43:50.017Z,16.50
2019-03-29T16:46:18.693Z,16.60
2019-03-29T16:48:47.523Z,16.50
2019-03-29T16:51:16.164Z,16.50
2019-03-29T16:53:44.925Z,16.60
2019-03-29T16:56:13.718Z,16.50
2019-03-29T16:58:42.562Z,16.50
2019-03-29T17:01:11.416Z,16.40
2019-03-29T17:03:40.017Z,16.30
2019-03-29T17:06:08.826Z,16.30
2019-03-29T17:08:37.532Z,16.20
2019-03-29T17:11:06.494Z,16.20
2019-03-29T17:13:35.093Z,16.30
2019-03-29T17:16:04.272Z,16.20
2019-03-29T17:18:33.166Z,16.10
2019-03-29T17:21:02.170Z,16.00
2019-03-29T17:23:30.907Z,16.00
2019-03-29T17:25:59.649Z,16.00
2019-03-29T17:28:28.413Z,15.90
2019-03-29T17:30:59.559Z,15.80
2019-03-29T17:33:29.591Z,15.80
2019-03-29T17:35:58.463Z,15.70
2019-03-29T17:38:27.327Z,15.60
2019-03-29T17:40:56.291Z,15.60
2019-03-29T17:43:25.080Z,15.50
2019-03-29T17:45:53.888Z,15.40
2019-03-29T17:48:23.741Z,15.40
2019-03-29T17:50:52.505Z,15.50
2019-03-29T17:53:21.135Z,15.50
2019-03-29T17:55:49.901Z,15.50
2019-03-29T17:58:18.587Z,15.50
2019-03-29T18:00:47.328Z,15.30
2019-03-29T18:03:16.167Z,15.30
2019-03-29T18:05:44.889Z,15.40
2019-03-29T18:08:13.522Z,15.40
2019-03-29T18:10:42.442Z,15.30
2019-03-29T18:13:11.231Z,15.30
2019-03-29T18:15:39.923Z,15.40
2019-03-29T18:18:08.532Z,15.30
2019-03-29T18:20:37.335Z,15.40
2019-03-29T18:23:06.088Z,15.30
2019-03-29T18:25:34.829Z,15.30
2019-03-29T18:28:03.474Z,15.30
2019-03-29T18:30:37.237Z,15.30
2019-03-29T18:33:06.228Z,15.20
2019-03-29T18:35:34.800Z,15.20
2019-03-29T18:38:03.611Z,15.30
2019-03-29T18:40:32.313Z,15.20
2019-03-29T18:43:01.068Z,15.20
2019-03-29T18:45:30.020Z,15.00
2019-03-29T18:47:58.704Z,14.90
2019-03-29T18:50:27.446Z,14.90
2019-03-29T18:52:56.178Z,14.80
2019-03-29T18:55:24.976Z,14.80
2019-03-29T18:57:53.711Z,14.80
2019-03-29T19:00:34.973Z,14.80
2019-03-29T19:03:03.856Z,14.80
2019-03-29T19:05:32.827Z,14.90
2019-03-29T19:08:01.459Z,14.90
2019-03-29T19:10:30.274Z,15.00
2019-03-29T19:12:59.309Z,15.00
2019-03-29T19:15:28.094Z,14.90
2019-03-29T19:17:56.808Z,14.80
2019-03-29T19:20:27.758Z,14.80
2019-03-29T19:22:56.275Z,14.60
2019-03-29T19:25:25.238Z,14.60
2019-03-29T19:27:53.940Z,14.40
2019-03-29T19:30:23.400Z,14.40
2019-03-29T19:32:52.307Z,14.30
2019-03-29T19:35:21.140Z,14.20
2019-03-29T19:37:49.870Z,14.10
2019-03-29T19:40:18.608Z,14.10
2019-03-29T19:42:47.601Z,14.10
2019-03-29T19:45:16.733Z,14.00
2019-03-29T19:47:45.487Z,14.00
2019-03-29T19:50:15.456Z,13.90
2019-03-29T19:52:44.322Z,14.10
2019-03-29T19:55:13.217Z,14.10
2019-03-29T19:57:41.833Z,14.10
2019-03-29T20:00:11.386Z,13.90
2019-03-29T20:02:40.204Z,13.80
2019-03-29T20:05:25.280Z,13.90
2019-03-29T20:07:54.859Z,14.00
2019-03-29T20:10:23.574Z,14.00
2019-03-29T20:12:52.737Z,14.00
2019-03-29T20:15:21.395Z,13.80
2019-03-29T20:17:50.202Z,13.70
2019-03-29T20:20:23.186Z,13.50
2019-03-29T20:22:53.108Z,13.40
2019-03-29T20:25:21.899Z,13.40
2019-03-29T20:27:50.763Z,13.40
2019-03-29T20:30:19.347Z,13.30
2019-03-29T20:32:48.342Z,13.40
2019-03-29T20:35:17.048Z,13.50
2019-03-29T20:37:45.848Z,13.40
2019-03-29T20:40:14.508Z,13.40
2019-03-29T20:42:43.328Z,13.20
2019-03-29T20:45:12.274Z,13.10
2019-03-29T20:47:42.453Z,13.20
2019-03-29T20:50:11.832Z,13.10
2019-03-29T20:52:40.558Z,13.10
2019-03-29T20:55:09.407Z,13.20
2019-03-29T20:57:38.151Z,13.20
2019-03-29T21:00:08.793Z,13.20
2019-03-29T21:02:37.693Z,13.10
2019-03-29T21:05:06.775Z,13.10
2019-03-29T21:07:35.514Z,13.00
2019-03-29T21:10:04.803Z,13.10
2019-03-29T21:12:34.570Z,13.00
2019-03-29T21:15:04.178Z,12.70
2019-03-29T21:17:33.175Z,12.50
2019-03-29T21:20:03.285Z,12.40
2019-03-29T21:22:31.678Z,12.40
2019-03-29T21:25:00.403Z,12.30
2019-03-29T21:27:29.285Z,12.30
2019-03-29T21:29:57.989Z,12.30
2019-03-29T21:32:26.673Z,12.20
2019-03-29T21:34:55.638Z,12.00
2019-03-29T21:37:24.444Z,12.10
2019-03-29T21:39:53.186Z,12.30
2019-03-29T21:42:21.842Z,12.30
2019-03-29T21:45:09.833Z,12.20
2019-03-29T21:47:38.603Z,12.20
2019-03-29T21:50:08.162Z,12.20
2019-03-29T21:52:37.047Z,12.10
2019-03-29T21:55:07.001Z,12.20
2019-03-29T21:57:35.626Z,12.40
2019-03-29T22:00:06.101Z,12.60
2019-03-29T22:02:34.877Z,12.30
2019-03-29T22:05:03.761Z,12.30
2019-03-29T22:07:32.558Z,12.00
2019-03-29T22:10:01.461Z,12.10
2019-03-29T22:12:30.280Z,12.00
2019-03-29T22:14:58.954Z,11.80
2019-03-29T22:17:27.884Z,11.70
2019-03-29T22:19:56.526Z,11.60
2019-03-29T22:22:25.307Z,11.50
2019-03-29T22:24:54.166Z,11.60
2019-03-29T22:27:22.986Z,11.50
2019-03-29T22:29:51.871Z,11.50
2019-03-29T22:32:20.645Z,11.50
2019-03-29T22:34:49.448Z,11.60
2019-03-29T22:37:19.731Z,11.40
2019-03-29T22:39:48.447Z,11.50
2019-03-29T22:42:17.228Z,11.50
2019-03-29T22:44:45.969Z,11.50
2019-03-29T22:47:14.764Z,11.70
2019-03-29T22:49:43.478Z,11.60
2019-03-29T22:52:12.242Z,11.70
2019-03-29T22:54:41.182Z,11.60
2019-03-29T22:57:09.992Z,11.60
2019-03-29T22:59:38.553Z,11.80
2019-03-29T23:02:08.177Z,11.80
2019-03-29T23:04:36.915Z,11.80
2019-03-29T23:07:05.696Z,11.80
2019-03-29T23:09:34.534Z,11.70
2019-03-29T23:12:03.287Z,11.70
2019-03-29T23:14:31.866Z,11.70
2019-03-29T23:17:00.564Z,11.90
2019-03-29T23:19:29.150Z,11.90
2019-03-29T23:21:57.924Z,11.80
2019-03-29T23:24:26.789Z,11.80
2019-03-29T23:26:55.699Z,11.80
2019-03-29T23:29:24.394Z,11.80
2019-03-29T23:31:53.255Z,11.80
2019-03-29T23:34:21.859Z,11.80
2019-03-29T23:36:50.260Z,11.90
2019-03-29T23:39:19.081Z,11.90
2019-03-29T23:41:47.819Z,12.10
2019-03-29T23:44:16.630Z,12.20
2019-03-29T23:46:45.538Z,12.00
2019-03-29T23:49:21.003Z,12.10
2019-03-29T23:51:44.699Z,12.30
2019-03-29T23:54:13.612Z,12.20
2019-03-29T23:56:42.103Z,12.10
2019-03-29T23:59:10.759Z,12.10
